Time;durP1;ratioP1;P1;durP2;ratioP2;P2;SDS_P1;SDS_P2;PMS_P1;PMS_P2;Temp;Humidity;BMP_temperature;BMP_pressure;BME280_temperature;BME280_humidity;BME280_pressure;Samples;Min_cycle;Max_cycle;Signal;HPM_P1;HPM_P2
2022/01/18 00:01:34;;;;;;;27.07;4.90;;;;;;;;;;5051729;28;20190;-68
2022/01/18 00:04:00;;;;;;;30.80;5.43;;;;;;;;;;5055614;28;20183;-69
2022/01/18 00:06:27;;;;;;;28.40;5.10;;;;;;;;;;5059483;28;20213;-69
2022/01/18 00:08:53;;;;;;;25.57;4.73;;;;;;;;;;5070356;28;20205;-69
2022/01/18 00:11:22;;;;;;;36.77;6.40;;;;;;;;;;5049171;28;20221;-69
2022/01/18 00:13:56;;;;;;;30.43;5.40;;;0.70;99.90;;;;;;5048009;28;20217;-69
2022/01/18 00:18:52;;;;;;;45.97;7.93;;;2.00;99.90;;;;;;5051344;28;20235;-69
2022/01/18 00:21:27;;;;;;;36.27;6.33;;;-0.10;99.90;;;;;;5051688;28;20187;-68
2022/01/18 00:23:55;;;;;;;38.93;6.80;;;0.60;99.90;;;;;;5052487;28;20186;-68
2022/01/18 00:26:21;;;;;;;45.70;7.97;;;0.60;99.90;;;;;;5049250;28;20265;-68
2022/01/18 00:28:55;;;;;;;47.47;8.20;;;1.60;99.90;;;;;;5048686;28;20270;-68
2022/01/18 00:31:44;;;;;;;20.00;3.83;;;0.40;99.90;;;;;;5054584;28;20182;-68
2022/01/18 00:39:14;;;;;;;23.03;4.27;;;0.30;99.90;;;;;;5059773;28;20330;-68
2022/01/18 00:41:39;;;;;;;29.67;5.47;;;0.20;99.90;;;;;;5049898;28;20225;-69
2022/01/18 00:44:07;;;;;;;31.53;5.83;;;0.50;99.90;;;;;;5057995;28;20307;-69
2022/01/18 00:46:33;;;;;;;20.43;3.90;;;0.20;99.90;;;;;;5057289;28;20192;-69
2022/01/18 00:49:01;;;;;;;30.23;5.63;;;0.30;99.90;;;;;;5054394;28;20184;-70
2022/01/18 00:51:34;;;;;;;36.87;6.73;;;0.20;99.90;;;;;;5047979;28;20383;-69
2022/01/18 00:54:00;;;;;;;39.20;7.13;;;0.30;99.90;;;;;;5052097;28;20176;-70
2022/01/18 00:56:29;;;;;;;33.97;6.17;;;0.10;99.90;;;;;;5055495;28;21275;-68
2022/01/18 00:58:55;;;;;;;32.60;6.10;;;0.10;99.90;;;;;;5054649;28;20171;-68
2022/01/18 01:01:24;;;;;;;33.13;6.27;;;0.00;99.90;;;;;;5072786;28;20205;-68
2022/01/18 01:03:51;;;;;;;25.83;4.93;;;-0.10;99.90;;;;;;5051947;28;20183;-68
2022/01/18 01:06:17;;;;;;;26.83;5.13;;;-0.10;99.90;;;;;;5057362;28;20207;-68
2022/01/18 01:08:44;;;;;;;31.33;5.93;;;-0.10;99.90;;;;;;5057204;28;20298;-69
2022/01/18 01:11:10;;;;;;;28.80;5.57;;;-0.10;99.90;;;;;;5059024;28;20179;-69
2022/01/18 01:13:37;;;;;;;42.93;7.97;;;;;;;;;;5052471;28;20194;-68
2022/01/18 01:34:48;;;;;;;22.20;4.53;;;0.10;99.90;;;;;;5058732;28;20656;-68
2022/01/18 01:41:46;;;;;;;46.63;8.87;;;;;;;;;;5067717;28;20189;-68
2022/01/18 01:45:27;;;;;;;24.43;4.87;;;;;;;;;;5059804;28;20372;-68
2022/01/18 01:47:54;;;;;;;22.20;4.47;;;;;;;;;;5084453;28;20203;-68
2022/01/18 01:50:22;;;;;;;28.77;5.67;;;;;;;;;;5053815;28;20676;-68
2022/01/18 01:52:49;;;;;;;28.43;5.63;;;;;;;;;;5056225;28;20202;-68
2022/01/18 01:55:16;;;;;;;28.60;5.70;;;;;;;;;;5053019;28;20554;-68
2022/01/18 01:57:42;;;;;;;29.23;5.70;;;0.00;99.90;;;;;;5079514;28;20194;-68
2022/01/18 02:00:11;;;;;;;40.47;7.67;;;;;;;;;;5053619;28;20190;-68
2022/01/18 02:02:37;;;;;;;30.47;6.03;;;0.30;99.90;;;;;;5055857;28;20197;-68
2022/01/18 02:05:03;;;;;;;29.93;5.93;;;-0.10;99.90;;;;;;5054007;28;20861;-68
2022/01/18 02:07:29;;;;;;;30.93;6.03;;;;;;;;;;5059353;28;20211;-68
2022/01/18 02:09:55;;;;;;;34.37;6.70;;;-0.30;99.90;;;;;;5048098;28;20249;-68
2022/01/18 02:12:22;;;;;;;58.57;10.53;;;;;;;;;;5051118;28;20195;-68
2022/01/18 02:14:54;;;;;;;24.43;4.93;;;;;;;;;;5053223;28;20225;-68
2022/01/18 02:22:51;;;;;;;23.17;4.70;;;;;;;;;;5056931;28;21336;-68
2022/01/18 02:25:17;;;;;;;32.83;6.33;;;;;;;;;;5052682;28;20886;-68
2022/01/18 02:27:42;;;;;;;34.17;6.50;;;;;;;;;;5060488;28;20210;-68
2022/01/18 02:30:09;;;;;;;36.60;6.93;;;-0.10;99.90;;;;;;5058744;28;20186;-68
2022/01/18 02:32:35;;;;;;;64.30;11.80;;;;;;;;;;5052340;28;20179;-68
2022/01/18 02:35:01;;;;;;;25.77;4.97;;;;;;;;;;5055321;28;20179;-69
2022/01/18 02:37:26;;;;;;;25.07;5.07;;;-0.20;99.90;;;;;;5054284;28;20202;-69
2022/01/18 02:39:52;;;;;;;43.40;8.33;;;-0.30;99.90;;;;;;5053434;28;20587;-68
2022/01/18 02:42:40;;;;;;;22.20;4.53;;;-0.30;99.90;;;;;;5056040;28;20552;-68
2022/01/18 02:45:06;;;;;;;31.73;6.13;;;-0.40;99.90;;;;;;5056865;28;20217;-68
2022/01/18 02:47:31;;;;;;;38.93;7.47;;;;;;;;;;5056652;28;20207;-69
2022/01/18 02:49:57;;;;;;;29.73;5.80;;;;;;;;;;5054507;28;20703;-68
2022/01/18 02:52:23;;;;;;;20.73;4.27;;;-0.50;99.90;;;;;;5058062;28;20187;-69
2022/01/18 02:54:49;;;;;;;46.93;8.77;;;;;;;;;;5051434;28;20186;-68
2022/01/18 02:57:23;;;;;;;33.13;6.40;;;-0.40;99.90;;;;;;5053284;28;20194;-68
2022/01/18 03:00:01;;;;;;;21.87;4.47;;;-0.60;99.90;;;;;;5057254;28;20205;-68
2022/01/18 03:05:14;;;;;;;17.63;3.60;;;;;;;;;;5050452;28;20301;-68
2022/01/18 03:07:40;;;;;;;42.97;8.23;;;;;;;;;;5057138;28;20718;-68
2022/01/18 03:10:08;;;;;;;32.03;6.20;;;;;;;;;;5050935;28;20179;-68
2022/01/18 03:12:34;;;;;;;34.60;6.37;;;;;;;;;;5049371;28;20252;-68
2022/01/18 03:14:59;;;;;;;34.43;6.53;;;-0.60;99.90;;;;;;5051405;28;20221;-68
2022/01/18 03:17:25;;;;;;;19.97;4.07;;;-0.70;99.90;;;;;;5057852;28;20187;-68
2022/01/18 03:19:50;;;;;;;36.30;6.83;;;-1.10;99.90;;;;;;5054889;28;20195;-68
2022/01/18 03:22:17;;;;;;;26.67;5.13;;;;;;;;;;5054491;28;20193;-68
2022/01/18 03:25:00;;;;;;;53.43;9.17;;;;;;;;;;5054303;28;20238;-68
2022/01/18 03:30:11;;;;;;;35.00;6.07;;;-0.80;99.90;;;;;;5052987;28;20584;-68
2022/01/18 03:32:37;;;;;;;30.40;5.37;;;-0.80;99.90;;;;;;5057680;28;20204;-68
2022/01/18 03:35:06;;;;;;;31.57;5.57;;;-0.90;99.90;;;;;;5061061;28;20823;-69
2022/01/18 03:37:31;;;;;;;52.67;8.87;;;-0.90;99.90;;;;;;5052996;28;20198;-69
2022/01/18 03:39:57;;;;;;;90.73;14.60;;;-1.00;99.90;;;;;;5049637;28;20626;-69
2022/01/18 03:42:37;;;;;;;57.20;9.50;;;;;;;;;;5052583;28;20533;-68
2022/01/18 03:45:05;;;;;;;40.43;6.80;;;-1.30;99.90;;;;;;5055829;28;20859;-69
2022/01/18 03:47:32;;;;;;;46.97;7.90;;;-0.90;99.90;;;;;;5052221;28;20207;-69
2022/01/18 03:49:59;;;;;;;38.33;6.63;;;;;;;;;;5053503;28;20192;-69
2022/01/18 03:52:25;;;;;;;37.80;6.57;;;;;;;;;;5056530;28;20238;-69
2022/01/18 03:54:51;;;;;;;71.37;11.57;;;;;;;;;;5053639;28;20275;-69
2022/01/18 03:57:17;;;;;;;43.13;7.20;;;;;;;;;;5052701;28;20195;-69
2022/01/18 03:59:44;;;;;;;41.47;7.07;;;;;;;;;;5054043;28;20187;-68
2022/01/18 04:02:10;;;;;;;40.43;7.03;;;;;;;;;;5052434;28;20217;-68
2022/01/18 04:04:39;;;;;;;44.23;7.53;;;-0.80;99.90;;;;;;5051028;28;20184;-69
2022/01/18 04:07:05;;;;;;;46.07;7.87;;;-0.90;99.90;;;;;;5054515;28;20264;-69
2022/01/18 04:09:31;;;;;;;59.70;9.83;;;-0.40;99.90;;;;;;5058712;28;20274;-68
2022/01/18 04:11:56;;;;;;;44.73;7.50;;;-1.00;99.90;;;;;;5046253;28;20632;-69
2022/01/18 04:14:23;;;;;;;27.20;4.87;;;-1.00;99.90;;;;;;5058040;28;20187;-69
2022/01/18 04:27:52;;;;;;;45.13;10.23;;;-0.30;99.90;;;;;;5071572;22;20664;-51
2022/01/18 04:30:18;;;;;;;57.30;12.17;;;-0.90;99.90;;;;;;5039985;28;20262;-51
2022/01/18 04:32:43;;;;;;;67.70;14.33;;;-1.00;99.90;;;;;;5045096;28;20277;-49
2022/01/18 04:35:09;;;;;;;51.50;10.93;;;-0.90;99.90;;;;;;5050789;28;20214;-48
2022/01/18 04:37:34;;;;;;;51.03;10.87;;;-0.90;99.90;;;;;;5047174;28;20277;-48
2022/01/18 04:40:07;;;;;;;66.40;14.43;;;-1.10;99.90;;;;;;5043820;28;20662;-48
2022/01/18 04:42:46;;;;;;;54.53;11.87;;;;;;;;;;5043530;28;20274;-48
2022/01/18 04:50:39;;;;;;;68.50;14.30;;;-0.90;99.90;;;;;;5039960;28;21240;-49
2022/01/18 04:53:05;;;;;;;44.13;10.07;;;-0.80;99.90;;;;;;5047493;28;20198;-48
2022/01/18 04:55:32;;;;;;;52.83;11.50;;;;;;;;;;5041611;28;20186;-47
2022/01/18 04:57:59;;;;;;;77.33;16.07;;;-0.80;99.90;;;;;;5039893;28;20615;-47
2022/01/18 05:00:25;;;;;;;61.07;13.17;;;-0.80;99.90;;;;;;5038171;28;20231;-50
2022/01/18 05:02:52;;;;;;;68.17;14.93;;;-0.80;99.90;;;;;;5041726;28;20372;-47
2022/01/18 05:05:28;;;;;;;53.00;11.60;;;-0.90;99.90;;;;;;5040506;28;20198;-47
2022/01/18 05:07:58;;;;;;;57.00;11.93;;;-0.60;99.90;;;;;;5049254;28;20268;-47
2022/01/18 05:10:27;;;;;;;74.63;15.43;;;-0.60;99.90;;;;;;5036946;28;20636;-47
2022/01/18 05:12:55;;;;;;;67.53;14.77;;;;;;;;;;5024479;28;20210;-47
2022/01/18 05:15:38;;;;;;;66.80;14.17;;;;;;;;;;5042849;28;20267;-47
2022/01/18 05:20:53;;;;;;;31.83;7.47;;;-0.50;99.90;;;;;;5049627;28;20191;-48
2022/01/18 05:23:19;;;;;;;42.23;9.73;;;-0.50;99.90;;;;;;5055733;28;20245;-47
2022/01/18 05:25:46;;;;;;;47.47;10.73;;;-0.40;99.90;;;;;;5048361;28;20238;-47
2022/01/18 05:28:13;;;;;;;57.20;12.43;;;-0.30;99.90;;;;;;5045156;28;20686;-47
2022/01/18 05:30:40;;;;;;;45.27;10.33;;;;;;;;;;5038331;28;20895;-47
2022/01/18 05:33:06;;;;;;;56.23;12.10;;;-0.30;99.90;;;;;;5042672;28;20595;-50
2022/01/18 05:35:32;;;;;;;65.97;13.83;;;-0.50;99.90;;;;;;5020579;28;20588;-50
2022/01/18 05:37:58;;;;;;;53.77;11.73;;;-0.40;99.90;;;;;;5043014;28;20225;-50
2022/01/18 05:40:24;;;;;;;61.27;13.10;;;;;;;;;;5045519;28;20214;-50
2022/01/18 05:42:49;;;;;;;49.27;10.83;;;-0.20;99.90;;;;;;5049450;28;20207;-49
2022/01/18 05:45:15;;;;;;;68.70;14.50;;;-0.10;99.90;;;;;;5049363;28;20197;-50
2022/01/18 05:47:41;;;;;;;75.13;15.90;;;-0.30;99.90;;;;;;5044832;28;20207;-48
2022/01/18 05:50:09;;;;;;;75.63;14.93;;;-0.30;99.90;;;;;;5046235;28;20198;-47
2022/01/18 05:52:35;;;;;;;82.87;17.27;;;-0.50;99.90;;;;;;5043355;28;20211;-47
2022/01/18 05:55:00;;;;;;;66.57;14.23;;;-0.40;99.90;;;;;;5048380;28;20256;-47
2022/01/18 05:57:26;;;;;;;66.10;14.17;;;-0.50;99.90;;;;;;5048098;28;20194;-47
2022/01/18 05:59:54;;;;;;;68.30;14.80;;;-0.50;99.90;;;;;;5044250;28;20218;-48
2022/01/18 06:02:37;;;;;;;79.77;16.83;;;;;;;;;;5042808;28;20179;-48
2022/01/18 06:07:47;;;;;;;54.60;11.43;;;-0.40;99.90;;;;;;5061002;28;20370;-47
2022/01/18 06:10:12;;;;;;;82.80;17.03;;;-0.60;99.90;;;;;;5045327;28;20643;-47
2022/01/18 06:12:39;;;;;;;91.27;19.03;;;-0.60;99.90;;;;;;5041813;28;20206;-47
2022/01/18 06:15:07;;;;;;;57.77;12.60;;;;;;;;;;5039248;28;20300;-50
2022/01/18 06:17:32;;;;;;;63.00;13.47;;;-0.60;99.90;;;;;;5048097;28;20270;-50
2022/01/18 06:19:58;;;;;;;69.77;14.73;;;-0.70;99.90;;;;;;5043413;28;20243;-50
2022/01/18 06:22:24;;;;;;;68.10;14.33;;;;;;;;;;5043331;28;20496;-50
2022/01/18 06:24:50;;;;;;;61.13;13.20;;;;;;;;;;5048998;28;20198;-50
2022/01/18 06:27:18;;;;;;;45.57;10.33;;;;;;;;;;5052146;28;20358;-50
2022/01/18 06:29:46;;;;;;;65.70;13.97;;;;;;;;;;5044501;28;20214;-50
2022/01/18 06:32:12;;;;;;;80.10;16.73;;;;;;;;;;5047215;28;20191;-50
2022/01/18 06:34:37;;;;;;;95.43;19.40;;;;;;;;;;5041760;28;20268;-47
2022/01/18 06:37:04;;;;;;;69.83;14.40;;;;;;;;;;5045969;28;20383;-50
2022/01/18 06:39:30;;;;;;;85.53;16.97;;;;;;;;;;5042558;28;20359;-50
2022/01/18 06:41:56;;;;;;;71.20;15.37;;;;;;;;;;5041143;28;20214;-50
2022/01/18 06:44:24;;;;;;;91.20;18.60;;;;;;;;;;5045889;28;20199;-47
2022/01/18 06:46:49;;;;;;;55.90;11.70;;;-0.60;99.90;;;;;;5051568;28;20331;-47
2022/01/18 06:49:15;;;;;;;62.57;12.73;;;;;;;;;;5049055;28;20230;-47
2022/01/18 06:51:41;;;;;;;51.07;11.10;;;-0.90;99.90;;;;;;5050299;28;20195;-47
2022/01/18 06:54:13;;;;;;;47.20;10.57;;;-0.80;99.90;;;;;;5050660;28;20256;-55
2022/01/18 06:56:42;;;;;;;84.30;17.70;;;-0.90;99.90;;;;;;5036123;28;20213;-47
2022/01/18 06:59:08;;;;;;;55.10;11.93;;;-0.90;99.90;;;;;;5049273;28;20564;-46
2022/01/18 07:01:33;;;;;;;41.17;9.57;;;-0.90;99.90;;;;;;5051901;28;20288;-46
2022/01/18 07:03:59;;;;;;;65.30;13.90;;;-0.80;99.90;;;;;;5045163;28;20223;-49
2022/01/18 07:06:25;;;;;;;98.50;20.27;;;-0.90;99.90;;;;;;5038849;28;20776;-49
2022/01/18 07:08:50;;;;;;;33.73;8.50;;;-0.60;99.90;;;;;;5045404;28;20732;-49
2022/01/18 07:11:16;;;;;;;79.40;16.93;;;-0.90;99.90;;;;;;5023480;28;20998;-46
2022/01/18 07:13:43;;;;;;;86.70;18.33;;;;;;;;;;5030368;28;20191;-47
2022/01/18 07:16:08;;;;;;;68.07;14.50;;;-0.90;99.90;;;;;;5041901;28;20363;-46
2022/01/18 07:18:34;;;;;;;82.97;17.40;;;-0.70;99.90;;;;;;5033593;28;20292;-49
2022/01/18 07:21:00;;;;;;;78.20;15.83;;;-1.00;99.90;;;;;;5042170;28;20198;-49
2022/01/18 07:23:25;;;;;;;79.80;16.80;;;-0.80;99.90;;;;;;5040946;28;20562;-49
2022/01/18 07:25:52;;;;;;;86.50;17.83;;;-0.70;99.90;;;;;;5034891;28;20270;-49
2022/01/18 07:28:19;;;;;;;77.57;16.60;;;;;;;;;;5030138;28;20310;-46
2022/01/18 07:30:45;;;;;;;65.37;14.10;;;-0.80;99.90;;;;;;5035595;28;20186;-47
2022/01/18 07:33:14;;;;;;;73.20;16.17;;;-0.80;99.90;;;;;;5049295;28;20194;-47
2022/01/18 07:35:41;;;;;;;66.87;14.57;;;-0.70;99.90;;;;;;5044335;28;20816;-49
2022/01/18 07:38:06;;;;;;;60.47;13.23;;;-0.70;99.90;;;;;;5051725;28;20190;-47
2022/01/18 07:40:33;;;;;;;59.57;13.33;;;-0.60;99.90;;;;;;5039647;28;20444;-47
2022/01/18 07:43:00;;;;;;;62.90;13.27;;;-0.60;99.90;;;;;;5043946;28;20690;-47
2022/01/18 07:45:30;;;;;;;51.40;11.23;;;-0.40;99.90;;;;;;5043601;28;20888;-47
2022/01/18 07:47:56;;;;;;;39.90;9.20;;;-0.60;99.90;;;;;;5055261;28;20217;-47
2022/01/18 07:50:22;;;;;;;64.60;14.57;;;;;;;;;;5040124;28;20175;-46
2022/01/18 07:52:49;;;;;;;57.77;12.50;;;-0.50;99.90;;;;;;5026194;28;20207;-46
2022/01/18 07:55:14;;;;;;;103.00;21.87;;;-0.40;99.90;;;;;;5032518;28;20678;-46
2022/01/18 07:57:43;;;;;;;163.17;33.57;;;-0.50;99.90;;;;;;5010926;28;20294;-46
2022/01/18 08:00:14;;;;;;;60.17;13.47;;;-0.50;99.90;;;;;;5037461;28;20188;-47
2022/01/18 08:02:41;;;;;;;64.80;14.73;;;-0.20;99.90;;;;;;5047369;28;20208;-48
2022/01/18 08:05:08;;;;;;;89.80;17.80;;;-0.40;99.90;;;;;;5037329;28;20195;-49
2022/01/18 08:07:34;;;;;;;67.40;14.70;;;-0.20;99.90;;;;;;5035310;28;20214;-48
2022/01/18 08:10:00;;;;;;;102.37;20.73;;;-0.10;99.90;;;;;;5037014;28;20195;-49
2022/01/18 08:12:26;;;;;;;135.93;26.83;;;-0.10;99.90;;;;;;5037158;28;20201;-49
2022/01/18 08:14:54;;;;;;;81.53;16.73;;;-0.10;99.90;;;;;;5037341;28;20183;-48
2022/01/18 08:17:22;;;;;;;241.70;48.47;;;-0.20;99.90;;;;;;4982996;28;20214;-49
2022/01/18 08:19:48;;;;;;;107.23;22.63;;;-0.10;99.90;;;;;;5026828;28;20266;-46
2022/01/18 08:22:14;;;;;;;59.67;13.60;;;-0.10;99.90;;;;;;5041719;28;20217;-46
2022/01/18 08:24:40;;;;;;;74.03;15.83;;;-0.10;99.90;;;;;;5030921;28;20522;-46
2022/01/18 08:27:07;;;;;;;71.07;16.00;;;0.00;99.90;;;;;;5044116;28;20680;-46
2022/01/18 08:29:34;;;;;;;79.10;17.53;;;-0.10;99.90;;;;;;5021905;28;20191;-46
2022/01/18 08:31:59;;;;;;;130.30;27.07;;;0.90;99.90;;;;;;4999030;28;20202;-46
2022/01/18 08:34:25;;;;;;;65.40;15.00;;;0.00;99.90;;;;;;5033535;28;20214;-46
2022/01/18 08:36:51;;;;;;;44.07;11.10;;;0.00;99.90;;;;;;5054651;28;20223;-46
2022/01/18 08:39:17;;;;;;;52.13;12.80;;;0.00;99.90;;;;;;5048543;28;20332;-47
2022/01/18 08:41:43;;;;;;;88.43;19.03;;;0.10;99.90;;;;;;5041171;28;20625;-48
2022/01/18 08:44:08;;;;;;;59.30;14.00;;;0.10;99.90;;;;;;5045131;28;20337;-48
2022/01/18 08:46:34;;;;;;;70.73;15.80;;;0.10;99.90;;;;;;5044129;28;20765;-47
2022/01/18 08:49:00;;;;;;;110.80;23.63;;;0.20;99.90;;;;;;5039078;28;20794;-47
2022/01/18 08:51:27;;;;;;;97.77;21.23;;;;;;;;;;5030686;28;20187;-48
2022/01/18 08:53:52;;;;;;;115.40;25.33;;;0.30;99.90;;;;;;5030720;28;20227;-47
2022/01/18 08:56:18;;;;;;;89.57;19.97;;;;;;;;;;5031464;28;20298;-47
2022/01/18 08:58:45;;;;;;;48.13;11.37;;;0.50;99.90;;;;;;5049767;28;20175;-47
2022/01/18 09:01:10;;;;;;;67.67;15.43;;;0.70;99.90;;;;;;5034774;28;20197;-47
2022/01/18 09:03:36;;;;;;;86.97;19.30;;;0.60;99.90;;;;;;5030560;28;20214;-47
2022/01/18 09:06:04;;;;;;;71.07;16.47;;;;;;;;;;5038512;28;20523;-48
2022/01/18 09:08:30;;;;;;;115.97;25.43;;;0.70;99.90;;;;;;5024067;28;20941;-47
2022/01/18 09:10:57;;;;;;;62.67;14.40;;;;;;;;;;5028407;28;21907;-47
2022/01/18 09:13:23;;;;;;;44.50;11.27;;;;;;;;;;5053428;28;20615;-47
2022/01/18 09:15:50;;;;;;;42.97;10.73;;;1.00;99.90;;;;;;5061883;28;20704;-47
2022/01/18 09:18:16;;;;;;;62.50;13.97;;;1.10;99.90;;;;;;5056209;28;20475;-47
2022/01/18 09:20:42;;;;;;;39.10;9.07;;;;;;;;;;5056212;28;20197;-47
2022/01/18 09:23:08;;;;;;;53.60;12.37;;;;;;;;;;5060381;28;20251;-47
2022/01/18 09:25:34;;;;;;;40.40;9.17;;;1.30;99.90;;;;;;5047980;28;20332;-47
2022/01/18 09:28:00;;;;;;;58.90;13.13;;;1.10;99.90;;;;;;5055426;28;20214;-47
2022/01/18 09:30:27;;;;;;;43.30;10.10;;;1.20;99.90;;;;;;5056055;28;20638;-47
2022/01/18 09:32:54;;;;;;;52.57;12.90;;;1.60;99.90;;;;;;5041908;28;20305;-48
2022/01/18 09:35:21;;;;;;;69.07;15.83;;;;;;;;;;5061436;28;20265;-47
2022/01/18 09:37:48;;;;;;;76.07;17.07;;;1.40;99.90;;;;;;5042719;28;20657;-47
2022/01/18 09:40:18;;;;;;;52.23;11.97;;;1.40;99.90;;;;;;5051863;28;20192;-47
2022/01/18 09:42:44;;;;;;;43.90;10.93;;;1.60;99.90;;;;;;5038159;28;20316;-47
2022/01/18 09:45:13;;;;;;;65.87;15.47;;;1.50;99.90;;;;;;5061337;28;20206;-47
2022/01/18 09:47:40;;;;;;;105.90;22.43;;;1.70;99.90;;;;;;5045147;28;20620;-47
2022/01/18 09:50:09;;;;;;;51.67;12.70;;;1.50;99.90;;;;;;5043329;28;20298;-47
2022/01/18 09:52:35;;;;;;;50.33;12.10;;;1.40;99.90;;;;;;5047364;28;20215;-48
2022/01/18 09:55:03;;;;;;;110.73;24.10;;;1.70;99.90;;;;;;5046442;28;20202;-47
2022/01/18 09:57:30;;;;;;;68.73;16.37;;;1.70;99.90;;;;;;5048364;28;20188;-47
2022/01/18 09:59:56;;;;;;;53.17;12.20;;;1.80;99.90;;;;;;5056288;28;20237;-47
2022/01/18 10:02:21;;;;;;;57.47;13.63;;;1.80;99.90;;;;;;5054649;28;20594;-47
2022/01/18 10:04:49;;;;;;;42.40;10.53;;;;;;;;;;5057827;28;20194;-48
2022/01/18 10:07:15;;;;;;;34.83;8.77;;;1.60;99.90;;;;;;5048044;28;20467;-47
2022/01/18 10:09:40;;;;;;;48.57;11.43;;;2.10;99.90;;;;;;5059310;28;20198;-47
2022/01/18 10:12:11;;;;;;;49.53;12.10;;;2.30;99.90;;;;;;5053621;28;20870;-47
2022/01/18 10:14:57;;;;;;;53.70;12.70;;;1.80;99.90;;;;;;5043486;28;20203;-47
2022/01/18 10:17:35;;;;;;;107.40;23.87;;;1.90;99.90;;;;;;5046059;28;20560;-48
2022/01/18 10:20:18;;;;;;;69.33;16.10;;;1.90;99.90;;;;;;5037252;28;20574;-47
2022/01/18 10:22:49;;;;;;;71.90;16.00;;;2.40;99.90;;;;;;5039822;28;20230;-47
2022/01/18 10:25:21;;;;;;;41.80;9.33;;;2.00;99.90;;;;;;5048546;28;20313;-47
2022/01/18 10:27:53;;;;;;;54.50;11.13;;;2.10;99.90;;;;;;5063607;22;20229;-51
2022/01/18 10:30:47;;;;;;;45.80;9.03;;;2.20;99.90;;;;;;5046308;28;20670;-50
2022/01/18 10:33:19;;;;;;;58.93;11.40;;;2.10;99.90;;;;;;5052208;28;20241;-51
2022/01/18 10:36:12;;;;;;;33.43;7.00;;;2.00;99.90;;;;;;5046303;28;20175;-51
2022/01/18 10:38:43;;;;;;;50.40;10.30;;;2.20;99.90;;;;;;5034822;28;20678;-51
2022/01/18 10:41:30;;;;;;;30.27;6.37;;;2.40;99.90;;;;;;5040450;28;20191;-50
2022/01/18 10:44:12;;;;;;;65.67;12.40;;;2.30;99.90;;;;;;5032315;28;20203;-52
2022/01/18 10:46:40;;;;;;;26.20;5.37;;;2.40;99.90;;;;;;5044962;28;20186;-51
2022/01/18 10:49:07;;;;;;;40.83;8.10;;;2.30;99.90;;;;;;5042312;28;20243;-51
2022/01/18 10:51:35;;;;;;;20.37;4.27;;;2.40;99.90;;;;;;5043608;28;20182;-51
2022/01/18 10:54:10;;;;;;;22.90;4.87;;;2.50;99.90;;;;;;5043203;28;20559;-51
2022/01/18 10:56:44;;;;;;;52.03;10.93;;;2.50;99.90;;;;;;5027282;28;20229;-52
2022/01/18 10:59:24;;;;;;;34.37;7.00;;;2.60;99.90;;;;;;5042010;28;20187;-52
2022/01/18 11:02:19;;;;;;;23.20;4.77;;;2.60;99.90;;;;;;5043247;28;20183;-51
2022/01/18 11:04:50;;;;;;;37.90;7.70;;;2.60;99.90;;;;;;5037526;28;20179;-51
2022/01/18 11:07:19;;;;;;;35.30;7.30;;;2.80;99.90;;;;;;5029729;28;20203;-52
2022/01/18 11:09:45;;;;;;;69.70;14.53;;;2.80;99.90;;;;;;5014117;28;20195;-53
2022/01/18 11:12:11;;;;;;;54.20;10.47;;;2.90;99.90;;;;;;5026032;28;20269;-51
2022/01/18 11:14:40;;;;;;;75.47;15.13;;;3.60;99.90;;;;;;5019813;28;20686;-51
2022/01/18 11:17:08;;;;;;;74.73;14.73;;;2.90;99.90;;;;;;5024554;28;20183;-52
2022/01/18 11:19:37;;;;;;;56.33;11.30;;;;;;;;;;5030434;28;20294;-52
2022/01/18 11:22:10;;;;;;;87.33;17.40;;;3.20;99.90;;;;;;5013640;28;20183;-52
2022/01/18 11:24:41;;;;;;;91.73;17.87;;;3.30;99.90;;;;;;5018984;28;20244;-52
2022/01/18 11:27:12;;;;;;;67.07;12.93;;;3.10;99.90;;;;;;5031855;28;20194;-51
2022/01/18 11:29:38;;;;;;;32.53;6.73;;;3.30;99.90;;;;;;5046483;28;20179;-51
2022/01/18 11:32:05;;;;;;;99.77;19.40;;;3.30;99.90;;;;;;5033498;28;20293;-51
2022/01/18 11:35:08;;;;;;;33.60;6.83;;;3.40;99.90;;;;;;5045978;28;20294;-52
2022/01/18 11:38:10;;;;;;;53.83;10.70;;;3.50;99.90;;;;;;5046361;28;20186;-51
2022/01/18 11:40:49;;;;;;;42.43;8.33;;;3.50;99.90;;;;;;5050739;28;20845;-52
2022/01/18 11:43:35;;;;;;;58.47;11.43;;;3.50;99.90;;;;;;5057004;28;20296;-52
2022/01/18 11:46:20;;;;;;;36.60;7.17;;;3.60;99.90;;;;;;5056743;28;20195;-53
2022/01/18 11:48:47;;;;;;;103.30;19.60;;;3.70;99.90;;;;;;5044104;28;20245;-52
2022/01/18 11:51:17;;;;;;;56.50;11.10;;;3.90;99.90;;;;;;5046151;28;20179;-52
2022/01/18 11:53:53;;;;;;;66.47;13.17;;;3.80;99.90;;;;;;5031273;28;20203;-52
2022/01/18 11:56:36;;;;;;;12.77;3.03;;;3.80;99.90;;;;;;5051742;28;20724;-52
2022/01/18 11:59:14;;;;;;;104.57;20.53;;;4.20;99.90;;;;;;5058113;28;20190;-52
2022/01/18 12:01:51;;;;;;;79.90;15.83;;;4.50;99.90;;;;;;5046255;28;20206;-52
2022/01/18 12:04:54;;;;;;;27.73;5.57;;;4.10;99.90;;;;;;5050714;28;20619;-51
2022/01/18 12:07:36;;;;;;;51.07;10.57;;;4.20;99.90;;;;;;5043071;28;20257;-52
2022/01/18 12:10:08;;;;;;;43.73;9.33;;;4.30;99.90;;;;;;5055054;28;20563;-52
2022/01/18 12:12:40;;;;;;;35.07;7.40;;;4.70;99.90;;;;;;5048374;28;20182;-52
2022/01/18 12:15:23;;;;;;;59.50;12.60;;;4.50;99.90;;;;;;5042189;28;20797;-52
2022/01/18 12:18:04;;;;;;;54.87;12.07;;;3.90;99.90;;;;;;5035999;28;20626;-52
2022/01/18 12:20:35;;;;;;;49.47;10.37;;;4.50;99.90;;;;;;5050836;28;20198;-49
2022/01/18 12:23:02;;;;;;;40.43;9.07;;;4.50;99.90;;;;;;5048384;28;20271;-49
2022/01/18 12:25:31;;;;;;;36.00;8.07;;;4.60;99.90;;;;;;5048499;28;20186;-49
2022/01/18 12:28:01;;;;;;;45.80;10.00;;;4.80;99.90;;;;;;5056038;28;20608;-49
2022/01/18 12:30:54;;;;;;;26.90;6.03;;;4.90;99.90;;;;;;5058899;28;20183;-48
2022/01/18 12:33:20;;;;;;;25.43;5.67;;;4.90;99.90;;;;;;5050174;28;20982;-48
2022/01/18 12:35:47;;;;;;;39.60;8.40;;;5.00;99.90;;;;;;5059790;28;20211;-49
2022/01/18 12:38:22;;;;;;;42.73;8.93;;;5.30;99.90;;;;;;5041637;28;20187;-49
2022/01/18 12:40:48;;;;;;;31.20;6.57;;;5.30;99.90;;;;;;5048206;28;20283;-49
2022/01/18 12:45:42;;;;;;;35.60;7.27;;;5.50;99.90;;;;;;5037389;28;20347;-49
2022/01/18 12:48:10;;;;;;;68.53;14.03;;;5.50;99.90;;;;;;5044356;28;20617;-49
2022/01/18 12:50:45;;;;;;;38.57;7.83;;;5.60;99.90;;;;;;5032728;28;20175;-49
2022/01/18 12:53:16;;;;;;;88.80;17.67;;;5.50;99.90;;;;;;5035124;28;20211;-49
2022/01/18 12:55:46;;;;;;;55.60;11.13;;;5.10;99.90;;;;;;5045793;28;20186;-49
2022/01/18 12:58:22;;;;;;;67.80;13.73;;;5.00;99.90;;;;;;5052901;28;20190;-49
2022/01/18 13:00:51;;;;;;;44.07;8.90;;;4.90;99.90;;;;;;5053268;28;20273;-48
2022/01/18 13:03:43;;;;;;;64.77;13.10;;;4.90;99.90;;;;;;5053612;28;20539;-49
2022/01/18 13:06:13;;;;;;;43.20;9.00;;;5.10;99.90;;;;;;5050251;28;20198;-49
2022/01/18 13:08:44;;;;;;;65.17;13.30;;;5.10;99.90;;;;;;5051346;28;20202;-49
2022/01/18 13:11:11;;;;;;;55.27;11.47;;;5.50;99.90;;;;;;5037870;28;20179;-48
2022/01/18 13:13:37;;;;;;;51.47;10.50;;;5.80;99.90;;;;;;5053505;28;20191;-49
2022/01/18 13:26:58;;;;;;;69.47;14.13;;;5.90;99.90;;;;;;5047002;28;20298;-49
2022/01/18 13:29:27;;;;;;;54.60;11.33;;;5.70;99.90;;;;;;5049631;28;20613;-49
2022/01/18 13:32:25;;;;;;;103.47;20.80;;;5.70;1.00;;;;;;5046952;28;20183;-49
2022/01/18 13:34:57;;;;;;;41.50;8.63;;;5.80;3.20;;;;;;5055836;28;20245;-48
2022/01/18 13:37:30;;;;;;;61.67;12.27;;;5.50;1.00;;;;;;5048225;28;20179;-49
2022/01/18 13:39:59;;;;;;;103.80;20.67;;;5.40;1.00;;;;;;5046015;28;20187;-48
2022/01/18 13:42:35;;;;;;;96.23;18.90;;;5.10;1.00;;;;;;5035662;28;20256;-49
2022/01/18 13:45:13;;;;;;;43.37;8.93;;;4.70;32.30;;;;;;5043890;28;20183;-49
2022/01/18 13:47:55;;;;;;;54.33;10.50;;;5.00;1.00;;;;;;5049559;28;20895;-49
2022/01/18 13:50:27;;;;;;;49.47;10.00;;;;;;;;;;5046525;28;20278;-49
2022/01/18 13:53:06;;;;;;;28.83;5.60;;;4.90;2.80;;;;;;5031699;28;20474;-48
2022/01/18 13:55:33;;;;;;;76.27;15.60;;;4.60;9.70;;;;;;5041374;28;20825;-49
2022/01/18 13:58:01;;;;;;;53.83;10.83;;;5.10;2.50;;;;;;5046475;28;20566;-49
2022/01/18 14:00:28;;;;;;;46.40;9.40;;;4.80;1.00;;;;;;5051923;28;20273;-49
2022/01/18 14:02:55;;;;;;;26.60;5.33;;;5.00;7.90;;;;;;5059932;28;20238;-49
2022/01/18 14:05:23;;;;;;;52.27;10.23;;;4.70;9.60;;;;;;5056591;28;20183;-49
2022/01/18 14:07:50;;;;;;;70.53;14.10;;;4.60;1.00;;;;;;5052841;28;20325;-49
2022/01/18 14:10:21;;;;;;;73.27;14.33;;;4.70;1.00;;;;;;5045965;28;20186;-49
2022/01/18 14:12:46;;;;;;;67.17;13.20;;;4.60;1.00;;;;;;5044846;28;20249;-48
2022/01/18 14:15:15;;;;;;;36.67;7.40;;;4.50;1.00;;;;;;5046085;28;20167;-49
2022/01/18 14:17:40;;;;;;;55.00;11.10;;;4.70;1.00;;;;;;5043523;28;20215;-48
2022/01/18 14:20:13;;;;;;;59.33;11.77;;;4.60;1.00;;;;;;5046775;28;22535;-49
2022/01/18 14:22:39;;;;;;;42.60;8.57;;;4.60;1.00;;;;;;5044912;28;20210;-49
2022/01/18 14:25:07;;;;;;;55.03;11.07;;;4.50;1.00;;;;;;5052798;28;20426;-49
2022/01/18 14:27:39;;;;;;;51.17;10.30;;;4.60;1.00;;;;;;5050735;28;20589;-49